sensor_id;sensor_type;location;lat;lon;timestamp;P1;durP1;ratioP1;P2;durP2;ratioP2
36411;SDS011;22445;52.100;5.176;2023-01-13T00:00:47;26.38;;;4.75;;
36411;SDS011;22445;52.100;5.176;2023-01-13T00:03:13;28.73;;;5.57;;
36411;SDS011;22445;52.100;5.176;2023-01-13T00:05:39;22.40;;;4.47;;
36411;SDS011;22445;52.100;5.176;2023-01-13T00:08:04;34.83;;;5.07;;
36411;SDS011;22445;52.100;5.176;2023-01-13T00:10:33;35.33;;;5.32;;
36411;SDS011;22445;52.100;5.176;2023-01-13T00:12:59;30.20;;;4.50;;
36411;SDS011;22445;52.100;5.176;2023-01-13T00:15:26;27.60;;;5.10;;
36411;SDS011;22445;52.100;5.176;2023-01-13T00:17:51;33.60;;;5.25;;
36411;SDS011;22445;52.100;5.176;2023-01-13T00:20:17;25.42;;;4.32;;
36411;SDS011;22445;52.100;5.176;2023-01-13T00:22:42;21.98;;;4.85;;
36411;SDS011;22445;52.100;5.176;2023-01-13T00:25:08;19.88;;;3.65;;
36411;SDS011;22445;52.100;5.176;2023-01-13T00:27:34;25.65;;;4.32;;
36411;SDS011;22445;52.100;5.176;2023-01-13T00:30:00;19.45;;;4.35;;
36411;SDS011;22445;52.100;5.176;2023-01-13T00:32:25;24.63;;;3.88;;
36411;SDS011;22445;52.100;5.176;2023-01-13T00:34:51;21.38;;;4.15;;
36411;SDS011;22445;52.100;5.176;2023-01-13T00:37:17;32.13;;;5.50;;
36411;SDS011;22445;52.100;5.176;2023-01-13T00:39:43;19.67;;;4.75;;
36411;SDS011;22445;52.100;5.176;2023-01-13T00:42:09;35.35;;;5.57;;
36411;SDS011;22445;52.100;5.176;2023-01-13T00:44:53;27.13;;;5.15;;
36411;SDS011;22445;52.100;5.176;2023-01-13T00:47:19;26.98;;;5.57;;
36411;SDS011;22445;52.100;5.176;2023-01-13T00:49:45;38.35;;;5.78;;
36411;SDS011;22445;52.100;5.176;2023-01-13T00:52:11;30.75;;;5.25;;
36411;SDS011;22445;52.100;5.176;2023-01-13T00:54:37;37.15;;;6.22;;
36411;SDS011;22445;52.100;5.176;2023-01-13T00:57:03;25.42;;;4.45;;
36411;SDS011;22445;52.100;5.176;2023-01-13T00:59:28;25.20;;;5.18;;
36411;SDS011;22445;52.100;5.176;2023-01-13T01:01:54;35.38;;;5.68;;
36411;SDS011;22445;52.100;5.176;2023-01-13T01:04:20;31.65;;;5.82;;
36411;SDS011;22445;52.100;5.176;2023-01-13T01:06:45;23.40;;;5.05;;
36411;SDS011;22445;52.100;5.176;2023-01-13T01:09:12;29.40;;;4.57;;
36411;SDS011;22445;52.100;5.176;2023-01-13T01:11:39;35.83;;;6.20;;
36411;SDS011;22445;52.100;5.176;2023-01-13T01:14:05;26.65;;;4.82;;
36411;SDS011;22445;52.100;5.176;2023-01-13T01:16:31;30.70;;;5.38;;
36411;SDS011;22445;52.100;5.176;2023-01-13T01:18:57;29.95;;;6.13;;
36411;SDS011;22445;52.100;5.176;2023-01-13T01:21:24;35.90;;;5.22;;
36411;SDS011;22445;52.100;5.176;2023-01-13T01:23:50;34.15;;;5.15;;
36411;SDS011;22445;52.100;5.176;2023-01-13T01:26:16;21.85;;;4.78;;
36411;SDS011;22445;52.100;5.176;2023-01-13T01:28:44;23.48;;;5.22;;
36411;SDS011;22445;52.100;5.176;2023-01-13T01:31:12;35.25;;;5.90;;
36411;SDS011;22445;52.100;5.176;2023-01-13T01:33:42;23.48;;;4.85;;
36411;SDS011;22445;52.100;5.176;2023-01-13T01:36:10;35.85;;;5.95;;
36411;SDS011;22445;52.100;5.176;2023-01-13T01:38:36;21.90;;;5.18;;
36411;SDS011;22445;52.100;5.176;2023-01-13T01:41:02;27.85;;;5.47;;
36411;SDS011;22445;52.100;5.176;2023-01-13T01:46:44;29.15;;;4.97;;
36411;SDS011;22445;52.100;5.176;2023-01-13T01:49:23;32.47;;;5.10;;
36411;SDS011;22445;52.100;5.176;2023-01-13T01:54:52;26.48;;;4.53;;
36411;SDS011;22445;52.100;5.176;2023-01-13T01:57:32;31.17;;;5.60;;
36411;SDS011;22445;52.100;5.176;2023-01-13T02:00:03;28.05;;;6.00;;
36411;SDS011;22445;52.100;5.176;2023-01-13T02:02:29;26.63;;;4.65;;
36411;SDS011;22445;52.100;5.176;2023-01-13T02:04:55;26.38;;;5.00;;
36411;SDS011;22445;52.100;5.176;2023-01-13T02:07:25;33.22;;;5.15;;
36411;SDS011;22445;52.100;5.176;2023-01-13T02:09:53;25.88;;;5.13;;
36411;SDS011;22445;52.100;5.176;2023-01-13T02:12:20;30.27;;;4.53;;
36411;SDS011;22445;52.100;5.176;2023-01-13T02:15:05;36.60;;;5.65;;
36411;SDS011;22445;52.100;5.176;2023-01-13T02:24:32;35.42;;;5.75;;
36411;SDS011;22445;52.100;5.176;2023-01-13T02:30:41;35.47;;;5.95;;
36411;SDS011;22445;52.100;5.176;2023-01-13T02:36:39;29.50;;;5.57;;
36411;SDS011;22445;52.100;5.176;2023-01-13T02:39:34;38.92;;;7.53;;
36411;SDS011;22445;52.100;5.176;2023-01-13T02:42:07;30.00;;;5.43;;
36411;SDS011;22445;52.100;5.176;2023-01-13T02:44:54;37.60;;;5.40;;
36411;SDS011;22445;52.100;5.176;2023-01-13T02:47:27;23.67;;;4.78;;
36411;SDS011;22445;52.100;5.176;2023-01-13T02:49:59;27.02;;;5.90;;
36411;SDS011;22445;52.100;5.176;2023-01-13T02:55:17;32.58;;;5.65;;
36411;SDS011;22445;52.100;5.176;2023-01-13T02:57:45;31.27;;;5.68;;
36411;SDS011;22445;52.100;5.176;2023-01-13T03:00:12;25.50;;;5.60;;
36411;SDS011;22445;52.100;5.176;2023-01-13T03:02:40;28.40;;;5.32;;
36411;SDS011;22445;52.100;5.176;2023-01-13T03:05:05;29.55;;;5.40;;
36411;SDS011;22445;52.100;5.176;2023-01-13T03:16:29;32.92;;;5.55;;
36411;SDS011;22445;52.100;5.176;2023-01-13T03:22:14;33.55;;;5.32;;
36411;SDS011;22445;52.100;5.176;2023-01-13T03:24:46;22.55;;;4.70;;
36411;SDS011;22445;52.100;5.176;2023-01-13T03:27:24;34.65;;;5.65;;
36411;SDS011;22445;52.100;5.176;2023-01-13T03:32:45;18.08;;;3.88;;
36411;SDS011;22445;52.100;5.176;2023-01-13T03:35:17;29.35;;;5.22;;
36411;SDS011;22445;52.100;5.176;2023-01-13T03:37:47;24.23;;;4.10;;
36411;SDS011;22445;52.100;5.176;2023-01-13T03:40:17;28.15;;;4.60;;
36411;SDS011;22445;52.100;5.176;2023-01-13T03:42:47;22.02;;;4.50;;
36411;SDS011;22445;52.100;5.176;2023-01-13T03:45:35;21.75;;;3.85;;
36411;SDS011;22445;52.100;5.176;2023-01-13T03:48:05;22.63;;;3.95;;
36411;SDS011;22445;52.100;5.176;2023-01-13T03:50:42;14.80;;;3.75;;
36411;SDS011;22445;52.100;5.176;2023-01-13T03:53:12;16.50;;;3.17;;
36411;SDS011;22445;52.100;5.176;2023-01-13T03:55:43;30.25;;;4.65;;
36411;SDS011;22445;52.100;5.176;2023-01-13T03:58:26;18.58;;;4.28;;
36411;SDS011;22445;52.100;5.176;2023-01-13T04:00:55;19.38;;;3.60;;
36411;SDS011;22445;52.100;5.176;2023-01-13T04:03:26;40.15;;;20.40;;
36411;SDS011;22445;52.100;5.176;2023-01-13T04:05:57;47.60;;;29.30;;
36411;SDS011;22445;52.100;5.176;2023-01-13T04:08:28;65.43;;;41.67;;
36411;SDS011;22445;52.100;5.176;2023-01-13T04:13:46;85.82;;;52.35;;
36411;SDS011;22445;52.100;5.176;2023-01-13T04:16:13;99.28;;;60.83;;
36411;SDS011;22445;52.100;5.176;2023-01-13T04:18:39;65.63;;;39.90;;
36411;SDS011;22445;52.100;5.176;2023-01-13T04:21:05;64.43;;;39.85;;
36411;SDS011;22445;52.100;5.176;2023-01-13T04:23:31;61.30;;;37.10;;
36411;SDS011;22445;52.100;5.176;2023-01-13T04:25:57;47.15;;;32.13;;
36411;SDS011;22445;52.100;5.176;2023-01-13T04:28:23;47.10;;;30.75;;
36411;SDS011;22445;52.100;5.176;2023-01-13T04:30:49;32.05;;;19.17;;
36411;SDS011;22445;52.100;5.176;2023-01-13T04:33:15;26.70;;;15.50;;
36411;SDS011;22445;52.100;5.176;2023-01-13T04:35:42;20.38;;;6.63;;
36411;SDS011;22445;52.100;5.176;2023-01-13T04:38:09;16.27;;;3.72;;
36411;SDS011;22445;52.100;5.176;2023-01-13T04:40:36;10.68;;;2.40;;
36411;SDS011;22445;52.100;5.176;2023-01-13T04:43:02;10.50;;;2.13;;
36411;SDS011;22445;52.100;5.176;2023-01-13T04:45:28;10.25;;;2.75;;
36411;SDS011;22445;52.100;5.176;2023-01-13T04:47:54;12.77;;;2.28;;
36411;SDS011;22445;52.100;5.176;2023-01-13T04:50:19;15.25;;;2.60;;
36411;SDS011;22445;52.100;5.176;2023-01-13T04:52:47;11.48;;;1.77;;
36411;SDS011;22445;52.100;5.176;2023-01-13T04:55:14;9.50;;;2.13;;
36411;SDS011;22445;52.100;5.176;2023-01-13T04:57:40;11.63;;;2.05;;
36411;SDS011;22445;52.100;5.176;2023-01-13T05:00:06;16.35;;;3.65;;
36411;SDS011;22445;52.100;5.176;2023-01-13T05:02:32;14.38;;;5.47;;
36411;SDS011;22445;52.100;5.176;2023-01-13T05:04:58;17.48;;;5.28;;
36411;SDS011;22445;52.100;5.176;2023-01-13T05:07:23;13.93;;;4.45;;
36411;SDS011;22445;52.100;5.176;2023-01-13T05:09:49;14.18;;;5.35;;
36411;SDS011;22445;52.100;5.176;2023-01-13T05:12:15;20.02;;;3.45;;
36411;SDS011;22445;52.100;5.176;2023-01-13T05:14:59;14.15;;;3.28;;
36411;SDS011;22445;52.100;5.176;2023-01-13T05:17:43;12.60;;;2.35;;
36411;SDS011;22445;52.100;5.176;2023-01-13T05:20:09;12.55;;;2.05;;
36411;SDS011;22445;52.100;5.176;2023-01-13T05:22:35;12.98;;;2.63;;
36411;SDS011;22445;52.100;5.176;2023-01-13T05:25:19;13.68;;;2.75;;
36411;SDS011;22445;52.100;5.176;2023-01-13T05:27:52;17.88;;;3.22;;
36411;SDS011;22445;52.100;5.176;2023-01-13T05:30:20;15.88;;;2.85;;
36411;SDS011;22445;52.100;5.176;2023-01-13T05:32:47;14.75;;;2.92;;
36411;SDS011;22445;52.100;5.176;2023-01-13T05:35:12;10.73;;;2.03;;
36411;SDS011;22445;52.100;5.176;2023-01-13T05:37:40;15.23;;;3.55;;
36411;SDS011;22445;52.100;5.176;2023-01-13T05:40:07;14.45;;;2.05;;
36411;SDS011;22445;52.100;5.176;2023-01-13T05:46:00;14.45;;;3.53;;
36411;SDS011;22445;52.100;5.176;2023-01-13T05:48:32;16.85;;;3.00;;
36411;SDS011;22445;52.100;5.176;2023-01-13T05:50:59;17.77;;;2.75;;
36411;SDS011;22445;52.100;5.176;2023-01-13T05:53:25;18.10;;;3.03;;
36411;SDS011;22445;52.100;5.176;2023-01-13T05:55:51;11.93;;;3.03;;
36411;SDS011;22445;52.100;5.176;2023-01-13T05:58:17;16.25;;;2.65;;
36411;SDS011;22445;52.100;5.176;2023-01-13T06:00:44;20.23;;;2.85;;
36411;SDS011;22445;52.100;5.176;2023-01-13T06:03:10;13.38;;;2.70;;
36411;SDS011;22445;52.100;5.176;2023-01-13T06:05:36;16.20;;;3.13;;
36411;SDS011;22445;52.100;5.176;2023-01-13T06:08:02;16.55;;;3.53;;
36411;SDS011;22445;52.100;5.176;2023-01-13T06:10:29;12.40;;;2.80;;
36411;SDS011;22445;52.100;5.176;2023-01-13T06:12:54;20.10;;;3.08;;
36411;SDS011;22445;52.100;5.176;2023-01-13T06:15:20;15.27;;;2.88;;
36411;SDS011;22445;52.100;5.176;2023-01-13T06:17:46;17.85;;;3.17;;
36411;SDS011;22445;52.100;5.176;2023-01-13T06:20:13;18.20;;;3.10;;
36411;SDS011;22445;52.100;5.176;2023-01-13T06:22:41;20.48;;;3.08;;
36411;SDS011;22445;52.100;5.176;2023-01-13T06:25:20;16.63;;;2.88;;
36411;SDS011;22445;52.100;5.176;2023-01-13T06:27:49;23.65;;;4.13;;
36411;SDS011;22445;52.100;5.176;2023-01-13T06:30:15;24.17;;;3.38;;
36411;SDS011;22445;52.100;5.176;2023-01-13T06:32:43;18.63;;;3.15;;
36411;SDS011;22445;52.100;5.176;2023-01-13T06:35:10;20.27;;;3.10;;
36411;SDS011;22445;52.100;5.176;2023-01-13T06:37:38;12.32;;;2.72;;
36411;SDS011;22445;52.100;5.176;2023-01-13T06:40:04;19.25;;;3.63;;
36411;SDS011;22445;52.100;5.176;2023-01-13T06:42:31;14.98;;;2.83;;
36411;SDS011;22445;52.100;5.176;2023-01-13T06:45:17;14.95;;;3.10;;
36411;SDS011;22445;52.100;5.176;2023-01-13T06:47:42;19.38;;;3.00;;
36411;SDS011;22445;52.100;5.176;2023-01-13T06:50:08;17.27;;;3.58;;
36411;SDS011;22445;52.100;5.176;2023-01-13T06:52:34;14.82;;;2.80;;
36411;SDS011;22445;52.100;5.176;2023-01-13T06:55:00;19.95;;;3.08;;
36411;SDS011;22445;52.100;5.176;2023-01-13T06:57:25;23.63;;;3.92;;
36411;SDS011;22445;52.100;5.176;2023-01-13T06:59:51;19.70;;;2.83;;
36411;SDS011;22445;52.100;5.176;2023-01-13T07:02:17;20.90;;;3.22;;
36411;SDS011;22445;52.100;5.176;2023-01-13T07:04:42;15.88;;;3.30;;
36411;SDS011;22445;52.100;5.176;2023-01-13T07:07:09;22.38;;;3.00;;
36411;SDS011;22445;52.100;5.176;2023-01-13T07:09:36;20.13;;;3.45;;
36411;SDS011;22445;52.100;5.176;2023-01-13T07:12:02;14.60;;;2.90;;
36411;SDS011;22445;52.100;5.176;2023-01-13T07:14:27;17.38;;;3.30;;
36411;SDS011;22445;52.100;5.176;2023-01-13T07:17:11;13.73;;;3.40;;
36411;SDS011;22445;52.100;5.176;2023-01-13T07:19:37;16.00;;;3.40;;
36411;SDS011;22445;52.100;5.176;2023-01-13T07:22:02;16.52;;;2.95;;
36411;SDS011;22445;52.100;5.176;2023-01-13T07:24:28;18.17;;;3.50;;
36411;SDS011;22445;52.100;5.176;2023-01-13T07:26:54;17.98;;;3.83;;
36411;SDS011;22445;52.100;5.176;2023-01-13T07:29:19;23.35;;;4.10;;
36411;SDS011;22445;52.100;5.176;2023-01-13T07:31:46;19.63;;;3.92;;
36411;SDS011;22445;52.100;5.176;2023-01-13T07:34:12;18.63;;;3.75;;
36411;SDS011;22445;52.100;5.176;2023-01-13T07:36:37;20.52;;;3.70;;
36411;SDS011;22445;52.100;5.176;2023-01-13T07:39:03;23.60;;;4.20;;
36411;SDS011;22445;52.100;5.176;2023-01-13T07:41:29;15.75;;;3.60;;
36411;SDS011;22445;52.100;5.176;2023-01-13T07:44:13;22.90;;;3.83;;
36411;SDS011;22445;52.100;5.176;2023-01-13T07:46:39;17.10;;;3.65;;
36411;SDS011;22445;52.100;5.176;2023-01-13T07:49:05;19.23;;;3.78;;
36411;SDS011;22445;52.100;5.176;2023-01-13T07:51:33;18.85;;;3.45;;
36411;SDS011;22445;52.100;5.176;2023-01-13T07:54:00;17.08;;;3.10;;
36411;SDS011;22445;52.100;5.176;2023-01-13T07:56:25;17.13;;;3.65;;
36411;SDS011;22445;52.100;5.176;2023-01-13T07:58:51;25.77;;;3.58;;
36411;SDS011;22445;52.100;5.176;2023-01-13T08:01:17;17.83;;;3.83;;
36411;SDS011;22445;52.100;5.176;2023-01-13T08:03:43;17.33;;;3.17;;
36411;SDS011;22445;52.100;5.176;2023-01-13T08:06:09;22.83;;;4.00;;
36411;SDS011;22445;52.100;5.176;2023-01-13T08:08:35;13.20;;;2.42;;
36411;SDS011;22445;52.100;5.176;2023-01-13T08:11:02;16.58;;;2.95;;
36411;SDS011;22445;52.100;5.176;2023-01-13T08:13:29;15.55;;;3.33;;
36411;SDS011;22445;52.100;5.176;2023-01-13T08:15:59;17.83;;;3.15;;
36411;SDS011;22445;52.100;5.176;2023-01-13T08:18:34;17.23;;;3.17;;
36411;SDS011;22445;52.100;5.176;2023-01-13T08:21:01;18.00;;;2.88;;
36411;SDS011;22445;52.100;5.176;2023-01-13T08:23:29;20.02;;;3.67;;
36411;SDS011;22445;52.100;5.176;2023-01-13T08:25:58;19.30;;;3.30;;
36411;SDS011;22445;52.100;5.176;2023-01-13T08:28:27;23.50;;;3.75;;
36411;SDS011;22445;52.100;5.176;2023-01-13T08:30:53;30.77;;;4.18;;
36411;SDS011;22445;52.100;5.176;2023-01-13T08:33:19;26.63;;;4.03;;
36411;SDS011;22445;52.100;5.176;2023-01-13T08:35:45;18.58;;;3.28;;
36411;SDS011;22445;52.100;5.176;2023-01-13T08:38:10;18.67;;;3.72;;
36411;SDS011;22445;52.100;5.176;2023-01-13T08:40:37;23.40;;;3.60;;
36411;SDS011;22445;52.100;5.176;2023-01-13T08:43:04;24.10;;;4.53;;
36411;SDS011;22445;52.100;5.176;2023-01-13T08:45:30;19.95;;;3.42;;
36411;SDS011;22445;52.100;5.176;2023-01-13T08:47:56;25.48;;;3.70;;
36411;SDS011;22445;52.100;5.176;2023-01-13T08:50:21;17.20;;;3.45;;
36411;SDS011;22445;52.100;5.176;2023-01-13T08:52:47;17.00;;;3.40;;
36411;SDS011;22445;52.100;5.176;2023-01-13T08:55:14;20.40;;;3.95;;
36411;SDS011;22445;52.100;5.176;2023-01-13T08:57:39;14.20;;;3.17;;
36411;SDS011;22445;52.100;5.176;2023-01-13T09:00:06;24.60;;;4.72;;
36411;SDS011;22445;52.100;5.176;2023-01-13T09:02:34;25.38;;;4.22;;
36411;SDS011;22445;52.100;5.176;2023-01-13T09:05:00;19.02;;;3.70;;
36411;SDS011;22445;52.100;5.176;2023-01-13T09:07:28;20.77;;;3.92;;
36411;SDS011;22445;52.100;5.176;2023-01-13T09:09:54;35.83;;;4.55;;
36411;SDS011;22445;52.100;5.176;2023-01-13T09:12:21;16.48;;;2.95;;
36411;SDS011;22445;52.100;5.176;2023-01-13T09:15:04;22.42;;;3.63;;
36411;SDS011;22445;52.100;5.176;2023-01-13T09:17:30;18.95;;;4.28;;
36411;SDS011;22445;52.100;5.176;2023-01-13T09:19:56;21.15;;;4.13;;
36411;SDS011;22445;52.100;5.176;2023-01-13T09:22:21;22.48;;;4.13;;
36411;SDS011;22445;52.100;5.176;2023-01-13T09:24:51;25.13;;;3.78;;
36411;SDS011;22445;52.100;5.176;2023-01-13T09:27:17;16.25;;;3.30;;
36411;SDS011;22445;52.100;5.176;2023-01-13T09:29:43;17.92;;;3.55;;
36411;SDS011;22445;52.100;5.176;2023-01-13T09:32:12;16.50;;;4.30;;
36411;SDS011;22445;52.100;5.176;2023-01-13T09:34:38;19.40;;;3.63;;
36411;SDS011;22445;52.100;5.176;2023-01-13T09:37:23;17.70;;;3.13;;
36411;SDS011;22445;52.100;5.176;2023-01-13T09:39:48;17.00;;;3.40;;
36411;SDS011;22445;52.100;5.176;2023-01-13T09:42:16;14.20;;;3.38;;
36411;SDS011;22445;52.100;5.176;2023-01-13T09:45:24;20.15;;;3.40;;
36411;SDS011;22445;52.100;5.176;2023-01-13T09:53:49;19.92;;;4.15;;
36411;SDS011;22445;52.100;5.176;2023-01-13T09:56:21;22.05;;;4.57;;
36411;SDS011;22445;52.100;5.176;2023-01-13T09:58:47;17.92;;;3.78;;
36411;SDS011;22445;52.100;5.176;2023-01-13T10:04:25;15.35;;;3.50;;
36411;SDS011;22445;52.100;5.176;2023-01-13T10:07:50;22.42;;;3.88;;
36411;SDS011;22445;52.100;5.176;2023-01-13T10:10:25;28.67;;;4.60;;
36411;SDS011;22445;52.100;5.176;2023-01-13T10:12:57;22.77;;;4.78;;
36411;SDS011;22445;52.100;5.176;2023-01-13T10:15:49;17.40;;;3.63;;
36411;SDS011;22445;52.100;5.176;2023-01-13T10:18:23;21.77;;;3.78;;
36411;SDS011;22445;52.100;5.176;2023-01-13T10:24:04;18.17;;;3.50;;
36411;SDS011;22445;52.100;5.176;2023-01-13T10:27:06;19.60;;;3.85;;
36411;SDS011;22445;52.100;5.176;2023-01-13T10:29:37;19.58;;;3.30;;
36411;SDS011;22445;52.100;5.176;2023-01-13T10:32:03;17.35;;;3.38;;
36411;SDS011;22445;52.100;5.176;2023-01-13T10:34:29;19.70;;;4.45;;
36411;SDS011;22445;52.100;5.176;2023-01-13T10:36:55;19.02;;;3.25;;
36411;SDS011;22445;52.100;5.176;2023-01-13T10:40:10;20.00;;;4.55;;
36411;SDS011;22445;52.100;5.176;2023-01-13T10:42:25;14.25;;;3.58;;
36411;SDS011;22445;52.100;5.176;2023-01-13T10:44:52;21.55;;;4.15;;
36411;SDS011;22445;52.100;5.176;2023-01-13T10:47:38;18.10;;;5.00;;
36411;SDS011;22445;52.100;5.176;2023-01-13T10:53:00;13.82;;;3.08;;
36411;SDS011;22445;52.100;5.176;2023-01-13T10:55:29;23.13;;;3.50;;
36411;SDS011;22445;52.100;5.176;2023-01-13T10:58:10;21.98;;;4.00;;
36411;SDS011;22445;52.100;5.176;2023-01-13T11:01:00;16.30;;;3.42;;
36411;SDS011;22445;52.100;5.176;2023-01-13T11:03:35;13.98;;;3.33;;
36411;SDS011;22445;52.100;5.176;2023-01-13T11:06:04;14.48;;;3.35;;
36411;SDS011;22445;52.100;5.176;2023-01-13T11:08:39;17.25;;;2.78;;
36411;SDS011;22445;52.100;5.176;2023-01-13T11:11:23;23.52;;;3.50;;
36411;SDS011;22445;52.100;5.176;2023-01-13T11:14:02;14.45;;;2.42;;
36411;SDS011;22445;52.100;5.176;2023-01-13T11:16:51;11.73;;;2.83;;
36411;SDS011;22445;52.100;5.176;2023-01-13T11:19:19;16.30;;;4.45;;
36411;SDS011;22445;52.100;5.176;2023-01-13T11:22:09;19.27;;;3.17;;
36411;SDS011;22445;52.100;5.176;2023-01-13T11:36:22;18.08;;;2.90;;
36411;SDS011;22445;52.100;5.176;2023-01-13T11:38:53;12.40;;;2.65;;
36411;SDS011;22445;52.100;5.176;2023-01-13T11:44:13;13.05;;;2.60;;
36411;SDS011;22445;52.100;5.176;2023-01-13T11:47:01;14.70;;;2.85;;
36411;SDS011;22445;52.100;5.176;2023-01-13T11:49:29;8.30;;;2.20;;
36411;SDS011;22445;52.100;5.176;2023-01-13T11:55:14;16.13;;;2.60;;
36411;SDS011;22445;52.100;5.176;2023-01-13T12:04:10;17.75;;;3.17;;
36411;SDS011;22445;52.100;5.176;2023-01-13T12:14:19;10.70;;;2.10;;
36411;SDS011;22445;52.100;5.176;2023-01-13T12:16:31;12.93;;;3.22;;
36411;SDS011;22445;52.100;5.176;2023-01-13T12:22:08;9.70;;;2.42;;
36411;SDS011;22445;52.100;5.176;2023-01-13T12:25:13;12.48;;;2.35;;
36411;SDS011;22445;52.100;5.176;2023-01-13T12:28:13;13.27;;;3.10;;
36411;SDS011;22445;52.100;5.176;2023-01-13T12:30:43;14.43;;;2.70;;
36411;SDS011;22445;52.100;5.176;2023-01-13T12:33:37;12.25;;;2.65;;
36411;SDS011;22445;52.100;5.176;2023-01-13T12:39:33;14.00;;;3.00;;
36411;SDS011;22445;52.100;5.176;2023-01-13T12:42:26;12.32;;;2.00;;
36411;SDS011;22445;52.100;5.176;2023-01-13T12:45:31;16.40;;;4.28;;
36411;SDS011;22445;52.100;5.176;2023-01-13T12:47:57;14.13;;;3.13;;
36411;SDS011;22445;52.100;5.176;2023-01-13T12:56:18;12.63;;;2.58;;
36411;SDS011;22445;52.100;5.176;2023-01-13T13:04:57;7.35;;;1.83;;
36411;SDS011;22445;52.100;5.176;2023-01-13T13:08:05;12.73;;;2.22;;
36411;SDS011;22445;52.100;5.176;2023-01-13T13:10:36;9.13;;;2.00;;
36411;SDS011;22445;52.100;5.176;2023-01-13T13:13:05;13.82;;;2.47;;
36411;SDS011;22445;52.100;5.176;2023-01-13T13:15:45;8.13;;;1.88;;
36411;SDS011;22445;52.100;5.176;2023-01-13T13:26:38;13.05;;;4.28;;
36411;SDS011;22445;52.100;5.176;2023-01-13T13:29:21;12.05;;;2.50;;
36411;SDS011;22445;52.100;5.176;2023-01-13T13:35:54;11.20;;;2.03;;
36411;SDS011;22445;52.100;5.176;2023-01-13T13:42:21;11.60;;;2.53;;
36411;SDS011;22445;52.100;5.176;2023-01-13T13:45:48;11.93;;;2.10;;
36411;SDS011;22445;52.100;5.176;2023-01-13T13:48:19;9.00;;;2.17;;
36411;SDS011;22445;52.100;5.176;2023-01-13T13:50:53;12.63;;;2.47;;
36411;SDS011;22445;52.100;5.176;2023-01-13T13:53:37;10.70;;;2.40;;
36411;SDS011;22445;52.100;5.176;2023-01-13T13:56:05;14.77;;;2.38;;
36411;SDS011;22445;52.100;5.176;2023-01-13T13:58:40;12.40;;;2.58;;
36411;SDS011;22445;52.100;5.176;2023-01-13T14:01:05;14.00;;;3.08;;
36411;SDS011;22445;52.100;5.176;2023-01-13T14:03:33;14.75;;;2.47;;
36411;SDS011;22445;52.100;5.176;2023-01-13T14:06:00;14.82;;;2.42;;
36411;SDS011;22445;52.100;5.176;2023-01-13T14:08:35;10.38;;;2.25;;
36411;SDS011;22445;52.100;5.176;2023-01-13T14:11:15;13.25;;;2.70;;
36411;SDS011;22445;52.100;5.176;2023-01-13T14:14:03;10.65;;;2.38;;
36411;SDS011;22445;52.100;5.176;2023-01-13T14:16:30;11.52;;;2.53;;
36411;SDS011;22445;52.100;5.176;2023-01-13T14:18:57;9.15;;;1.65;;
36411;SDS011;22445;52.100;5.176;2023-01-13T14:21:25;10.65;;;2.42;;
36411;SDS011;22445;52.100;5.176;2023-01-13T14:23:59;10.80;;;2.35;;
36411;SDS011;22445;52.100;5.176;2023-01-13T14:26:36;13.73;;;2.72;;
36411;SDS011;22445;52.100;5.176;2023-01-13T14:29:01;9.90;;;2.45;;
36411;SDS011;22445;52.100;5.176;2023-01-13T14:31:28;10.95;;;2.45;;
36411;SDS011;22445;52.100;5.176;2023-01-13T14:33:55;8.48;;;2.30;;
36411;SDS011;22445;52.100;5.176;2023-01-13T14:36:23;11.30;;;2.10;;
36411;SDS011;22445;52.100;5.176;2023-01-13T14:41:48;10.48;;;2.38;;
36411;SDS011;22445;52.100;5.176;2023-01-13T14:47:02;11.35;;;2.30;;
36411;SDS011;22445;52.100;5.176;2023-01-13T14:52:51;13.13;;;2.35;;
36411;SDS011;22445;52.100;5.176;2023-01-13T14:55:30;17.38;;;2.95;;
36411;SDS011;22445;52.100;5.176;2023-01-13T15:00:49;13.30;;;3.58;;
36411;SDS011;22445;52.100;5.176;2023-01-13T15:03:16;11.48;;;2.10;;
36411;SDS011;22445;52.100;5.176;2023-01-13T15:05:46;9.98;;;2.25;;
36411;SDS011;22445;52.100;5.176;2023-01-13T15:11:00;10.25;;;2.17;;
36411;SDS011;22445;52.100;5.176;2023-01-13T15:16:23;11.85;;;2.53;;
36411;SDS011;22445;52.100;5.176;2023-01-13T15:18:50;10.98;;;2.22;;
36411;SDS011;22445;52.100;5.176;2023-01-13T15:21:16;8.70;;;1.60;;
36411;SDS011;22445;52.100;5.176;2023-01-13T15:23:42;11.73;;;2.45;;
36411;SDS011;22445;52.100;5.176;2023-01-13T15:26:16;17.58;;;4.13;;
36411;SDS011;22445;52.100;5.176;2023-01-13T15:29:05;10.82;;;2.22;;
36411;SDS011;22445;52.100;5.176;2023-01-13T15:31:36;16.70;;;2.92;;
36411;SDS011;22445;52.100;5.176;2023-01-13T15:34:01;9.60;;;2.58;;
36411;SDS011;22445;52.100;5.176;2023-01-13T15:36:30;17.50;;;3.47;;
36411;SDS011;22445;52.100;5.176;2023-01-13T15:38:57;13.98;;;2.72;;
36411;SDS011;22445;52.100;5.176;2023-01-13T15:41:23;13.07;;;2.80;;
36411;SDS011;22445;52.100;5.176;2023-01-13T15:44:09;12.38;;;2.33;;
36411;SDS011;22445;52.100;5.176;2023-01-13T15:46:53;10.43;;;3.38;;
36411;SDS011;22445;52.100;5.176;2023-01-13T15:49:24;9.68;;;2.45;;
36411;SDS011;22445;52.100;5.176;2023-01-13T15:51:52;10.95;;;2.38;;
36411;SDS011;22445;52.100;5.176;2023-01-13T15:54:17;13.02;;;3.15;;
36411;SDS011;22445;52.100;5.176;2023-01-13T15:56:46;12.70;;;2.25;;
36411;SDS011;22445;52.100;5.176;2023-01-13T15:59:16;12.32;;;2.47;;
36411;SDS011;22445;52.100;5.176;2023-01-13T16:01:43;12.20;;;3.33;;
36411;SDS011;22445;52.100;5.176;2023-01-13T16:04:09;13.30;;;2.55;;
36411;SDS011;22445;52.100;5.176;2023-01-13T16:06:35;16.80;;;3.38;;
36411;SDS011;22445;52.100;5.176;2023-01-13T16:09:02;17.63;;;2.97;;
36411;SDS011;22445;52.100;5.176;2023-01-13T16:11:28;14.05;;;2.40;;
36411;SDS011;22445;52.100;5.176;2023-01-13T16:13:53;10.90;;;2.70;;
36411;SDS011;22445;52.100;5.176;2023-01-13T16:16:20;15.73;;;3.25;;
36411;SDS011;22445;52.100;5.176;2023-01-13T16:18:47;15.13;;;2.47;;
36411;SDS011;22445;52.100;5.176;2023-01-13T16:21:13;16.45;;;2.35;;
36411;SDS011;22445;52.100;5.176;2023-01-13T16:23:39;14.60;;;3.20;;
36411;SDS011;22445;52.100;5.176;2023-01-13T16:26:06;13.27;;;2.40;;
36411;SDS011;22445;52.100;5.176;2023-01-13T16:28:38;11.73;;;2.08;;
36411;SDS011;22445;52.100;5.176;2023-01-13T16:31:14;11.55;;;2.22;;
36411;SDS011;22445;52.100;5.176;2023-01-13T16:33:41;11.30;;;2.40;;
36411;SDS011;22445;52.100;5.176;2023-01-13T16:36:10;15.18;;;2.10;;
36411;SDS011;22445;52.100;5.176;2023-01-13T16:38:37;14.88;;;2.17;;
36411;SDS011;22445;52.100;5.176;2023-01-13T16:41:03;16.35;;;2.70;;
36411;SDS011;22445;52.100;5.176;2023-01-13T16:43:29;9.13;;;2.25;;
36411;SDS011;22445;52.100;5.176;2023-01-13T16:45:54;12.82;;;2.17;;
36411;SDS011;22445;52.100;5.176;2023-01-13T16:48:20;15.18;;;2.88;;
36411;SDS011;22445;52.100;5.176;2023-01-13T16:50:46;12.65;;;2.40;;
36411;SDS011;22445;52.100;5.176;2023-01-13T16:53:12;13.63;;;2.60;;
36411;SDS011;22445;52.100;5.176;2023-01-13T16:55:38;16.50;;;3.05;;
36411;SDS011;22445;52.100;5.176;2023-01-13T16:58:05;14.43;;;4.07;;
36411;SDS011;22445;52.100;5.176;2023-01-13T17:00:31;12.63;;;2.95;;
36411;SDS011;22445;52.100;5.176;2023-01-13T17:02:57;8.07;;;1.70;;
36411;SDS011;22445;52.100;5.176;2023-01-13T17:05:25;6.88;;;1.20;;
36411;SDS011;22445;52.100;5.176;2023-01-13T17:07:51;5.55;;;1.15;;
36411;SDS011;22445;52.100;5.176;2023-01-13T17:10:18;9.18;;;1.70;;
36411;SDS011;22445;52.100;5.176;2023-01-13T17:12:45;10.98;;;2.25;;
36411;SDS011;22445;52.100;5.176;2023-01-13T17:15:11;8.32;;;1.73;;
36411;SDS011;22445;52.100;5.176;2023-01-13T17:17:38;9.52;;;1.70;;